createdAt,value
2019-04-22T00:01:50.299Z,2.27
2019-04-22T00:04:32.208Z,2.47
2019-04-22T00:07:18.531Z,2.47
2019-04-22T00:10:03.069Z,3.63
2019-04-22T00:12:37.315Z,2.70
2019-04-22T00:14:59.980Z,3.03
2019-04-22T00:20:08.622Z,3.07
2019-04-22T00:22:46.504Z,3.10
2019-04-22T00:30:34.111Z,2.57
2019-04-22T00:33:13.348Z,2.77
2019-04-22T00:35:52.626Z,2.17
2019-04-22T00:38:33.835Z,2.20
2019-04-22T00:41:10.330Z,2.20
2019-04-22T00:43:42.196Z,2.20
2019-04-22T00:46:10.938Z,2.00
2019-04-22T00:49:05.779Z,3.00
2019-04-22T00:51:22.855Z,2.63
2019-04-22T00:53:57.804Z,2.40
2019-04-22T00:56:28.283Z,2.57
2019-04-22T00:59:11.491Z,3.43
2019-04-22T01:01:36.957Z,2.73
2019-04-22T01:04:20.372Z,2.40
2019-04-22T01:06:49.441Z,2.90
2019-04-22T01:09:23.450Z,3.27
2019-04-22T01:12:04.678Z,3.10
2019-04-22T01:14:37.565Z,2.13
2019-04-22T01:17:07.939Z,3.03
2019-04-22T01:19:52.328Z,2.37
2019-04-22T01:22:17.632Z,2.70
2019-04-22T01:24:50.234Z,3.00
2019-04-22T01:27:20.490Z,2.33
2019-04-22T01:29:51.178Z,2.90
2019-04-22T01:32:18.849Z,2.80
2019-04-22T01:35:05.037Z,3.27
2019-04-22T01:37:45.668Z,2.33
2019-04-22T01:40:23.840Z,2.57
2019-04-22T01:43:14.691Z,2.47
2019-04-22T01:45:40.046Z,2.93
2019-04-22T01:48:17.951Z,2.90
2019-04-22T01:50:43.891Z,2.57
2019-04-22T01:53:27.486Z,2.90
2019-04-22T01:56:02.027Z,2.90
2019-04-22T01:58:30.716Z,2.77
2019-04-22T02:01:04.901Z,3.10
2019-04-22T02:03:46.760Z,3.67
2019-04-22T02:06:25.426Z,2.10
2019-04-22T02:09:00.613Z,2.90
2019-04-22T02:11:32.215Z,3.30
2019-04-22T02:14:05.045Z,3.13
2019-04-22T02:19:18.453Z,3.03
2019-04-22T02:21:46.550Z,3.27
2019-04-22T02:24:26.464Z,2.97
2019-04-22T02:26:54.581Z,2.70
2019-04-22T02:29:32.585Z,3.10
2019-04-22T02:32:24.794Z,2.67
2019-04-22T02:34:50.413Z,2.90
2019-04-22T02:37:21.014Z,3.13
2019-04-22T02:39:57.285Z,2.83
2019-04-22T02:42:16.638Z,3.73
2019-04-22T02:47:29.345Z,3.30
2019-04-22T02:50:06.019Z,3.10
2019-04-22T02:52:37.661Z,3.50
2019-04-22T03:00:38.123Z,3.30
2019-04-22T03:05:41.091Z,3.33
2019-04-22T03:08:06.690Z,3.60
2019-04-22T03:10:51.067Z,3.50
2019-04-22T03:13:21.660Z,3.60
2019-04-22T03:15:55.545Z,3.00
2019-04-22T03:20:58.269Z,3.23
2019-04-22T03:26:14.466Z,3.10
2019-04-22T03:28:49.730Z,3.53
2019-04-22T03:35:09.940Z,4.20
2019-04-22T03:45:00.561Z,3.83
2019-04-22T03:47:31.933Z,3.03
2019-04-22T03:49:56.362Z,3.83
2019-04-22T04:05:43.966Z,3.70
2019-04-22T04:08:12.677Z,3.90
2019-04-22T04:15:57.668Z,3.80
2019-04-22T04:18:21.207Z,4.10
2019-04-22T04:21:12.808Z,3.90
2019-04-22T04:23:37.905Z,3.43
2019-04-22T04:28:50.803Z,3.70
2019-04-22T04:31:25.591Z,3.30
2019-04-22T04:36:28.299Z,3.30
2019-04-22T04:41:42.733Z,3.63
2019-04-22T04:46:47.387Z,4.00
2019-04-22T04:49:19.294Z,3.63
2019-04-22T04:51:47.226Z,4.90
2019-04-22T04:57:14.981Z,3.40
2019-04-22T05:02:09.511Z,4.40
2019-04-22T05:04:59.360Z,4.20
2019-04-22T05:07:29.663Z,3.43
2019-04-22T05:09:59.629Z,3.90
2019-04-22T05:12:53.011Z,3.77
2019-04-22T05:15:04.120Z,4.00
2019-04-22T05:17:43.672Z,3.10
2019-04-22T05:20:33.698Z,3.93
2019-04-22T05:22:44.765Z,3.97
2019-04-22T05:25:17.892Z,3.67
2019-04-22T05:28:07.544Z,4.50
2019-04-22T05:30:27.873Z,4.80
2019-04-22T05:33:01.595Z,5.27
2019-04-22T05:35:39.249Z,6.07
2019-04-22T05:38:17.201Z,5.00
2019-04-22T05:40:50.102Z,6.07
2019-04-22T05:43:21.283Z,6.20
2019-04-22T05:45:58.932Z,4.50
2019-04-22T05:48:33.146Z,4.60
2019-04-22T05:51:03.746Z,4.70
2019-04-22T05:53:40.543Z,2.80
2019-04-22T05:56:20.769Z,3.50
2019-04-22T05:58:53.594Z,3.70
2019-04-22T06:06:43.012Z,3.63
2019-04-22T06:09:19.217Z,3.33
2019-04-22T06:11:42.825Z,3.40
2019-04-22T06:14:21.933Z,3.83
2019-04-22T06:16:59.153Z,3.40
2019-04-22T06:19:33.240Z,4.10
2019-04-22T06:22:19.859Z,8.50
2019-04-22T06:24:49.392Z,6.93
2019-04-22T06:27:31.366Z,5.80
2019-04-22T06:29:53.696Z,7.70
2019-04-22T06:35:16.671Z,5.00
2019-04-22T06:37:46.408Z,4.20
2019-04-22T06:40:13.078Z,4.20
2019-04-22T06:42:56.609Z,5.20
2019-04-22T06:45:23.448Z,4.30
2019-04-22T06:50:38.481Z,4.40
2019-04-22T06:53:11.636Z,3.40
2019-04-22T06:55:44.368Z,3.80
2019-04-22T06:58:15.212Z,3.90
2019-04-22T07:00:53.188Z,4.10
2019-04-22T07:06:13.054Z,4.10
2019-04-22T07:09:09.372Z,4.03
2019-04-22T07:11:14.151Z,4.00
2019-04-22T07:13:57.504Z,4.13
2019-04-22T07:16:32.038Z,3.30
2019-04-22T07:21:37.420Z,3.10
2019-04-22T07:24:27.806Z,3.10
2019-04-22T07:26:44.837Z,3.30
2019-04-22T07:29:20.627Z,3.23
2019-04-22T07:32:03.471Z,5.83
2019-04-22T07:39:44.010Z,4.20
2019-04-22T07:42:19.000Z,3.47
2019-04-22T07:44:51.049Z,3.60
2019-04-22T07:52:35.241Z,3.37
2019-04-22T07:55:05.629Z,3.50
2019-04-22T07:57:44.539Z,3.63
2019-04-22T08:00:34.219Z,3.03
2019-04-22T08:03:01.294Z,3.17
2019-04-22T08:08:16.871Z,3.50
2019-04-22T08:10:52.285Z,3.97
2019-04-22T08:13:19.587Z,2.60
2019-04-22T08:15:56.908Z,3.00
2019-04-22T08:18:29.014Z,3.30
2019-04-22T08:20:58.928Z,3.13
2019-04-22T08:23:39.552Z,3.17
2019-04-22T08:26:05.497Z,3.20
2019-04-22T08:28:48.596Z,3.03
2019-04-22T08:31:20.285Z,3.10
2019-04-22T08:33:59.923Z,3.23
2019-04-22T08:36:32.357Z,3.70
2019-04-22T08:39:08.251Z,3.60
2019-04-22T08:41:37.533Z,3.50
2019-04-22T08:44:17.010Z,3.33
2019-04-22T08:46:56.224Z,3.13
2019-04-22T08:49:26.592Z,3.27
2019-04-22T08:52:01.035Z,2.60
2019-04-22T08:54:36.020Z,3.17
2019-04-22T08:57:18.332Z,2.90
2019-04-22T08:59:49.038Z,3.47
2019-04-22T09:02:25.756Z,3.10
2019-04-22T09:05:10.891Z,3.30
2019-04-22T09:07:37.640Z,3.47
2019-04-22T09:10:10.364Z,3.80
2019-04-22T09:12:56.865Z,4.13
2019-04-22T09:15:20.522Z,3.47
2019-04-22T09:18:00.459Z,4.00
2019-04-22T09:20:30.490Z,4.10
2019-04-22T09:25:51.050Z,5.90
2019-04-22T09:28:17.444Z,3.70
2019-04-22T09:30:56.917Z,3.67
2019-04-22T09:33:27.152Z,3.80
2019-04-22T09:36:07.830Z,3.80
2019-04-22T09:41:10.674Z,3.97
2019-04-22T09:43:49.316Z,4.27
2019-04-22T09:46:14.887Z,4.83
2019-04-22T09:51:26.830Z,4.60
2019-04-22T09:54:06.023Z,3.70
2019-04-22T09:56:46.453Z,4.33
2019-04-22T09:59:08.821Z,4.33
2019-04-22T10:01:47.503Z,3.73
2019-04-22T10:04:20.135Z,3.90
2019-04-22T10:06:54.640Z,4.53
2019-04-22T10:12:10.295Z,4.13
2019-04-22T10:17:25.154Z,3.80
2019-04-22T10:20:01.104Z,5.07
2019-04-22T10:22:42.517Z,4.47
2019-04-22T10:25:10.663Z,5.33
2019-04-22T10:27:53.607Z,6.97
2019-04-22T10:30:25.205Z,6.53
2019-04-22T10:32:56.364Z,5.13
2019-04-22T10:35:15.413Z,5.00
2019-04-22T10:37:44.254Z,5.50
2019-04-22T10:40:42.716Z,5.20
2019-04-22T10:43:17.054Z,5.20
2019-04-22T10:45:50.245Z,4.53
2019-04-22T10:48:22.101Z,4.80
2019-04-22T10:50:54.930Z,6.57
2019-04-22T10:53:27.001Z,6.07
2019-04-22T10:56:01.018Z,5.67
2019-04-22T10:58:34.938Z,5.20
2019-04-22T11:01:07.404Z,5.93
2019-04-22T11:03:41.524Z,5.53
2019-04-22T11:06:15.086Z,5.90
2019-04-22T11:08:52.842Z,6.00
2019-04-22T11:11:34.782Z,5.17
2019-04-22T11:13:56.050Z,4.97
2019-04-22T11:16:29.896Z,4.73
2019-04-22T11:19:05.563Z,5.67
2019-04-22T11:21:41.243Z,5.50
2019-04-22T11:24:16.755Z,5.23
2019-04-22T11:26:49.334Z,5.33
2019-04-22T11:29:23.775Z,5.30
2019-04-22T11:31:57.183Z,4.63
2019-04-22T11:34:33.275Z,4.80
2019-04-22T11:37:06.017Z,5.50
2019-04-22T11:39:40.754Z,4.90
2019-04-22T11:42:14.088Z,4.70
2019-04-22T11:44:47.627Z,5.50
2019-04-22T11:47:21.547Z,5.40
2019-04-22T11:49:54.766Z,5.10
2019-04-22T11:52:28.835Z,5.13
2019-04-22T11:55:04.528Z,4.73
2019-04-22T11:57:37.163Z,5.50
2019-04-22T12:00:14.575Z,4.60
2019-04-22T12:02:49.320Z,4.60
2019-04-22T12:05:23.780Z,4.53
2019-04-22T12:07:57.416Z,3.80
2019-04-22T12:10:38.948Z,4.77
2019-04-22T12:13:10.210Z,4.70
2019-04-22T12:15:42.871Z,5.10
2019-04-22T12:18:15.359Z,5.13
2019-04-22T12:20:48.787Z,4.50
2019-04-22T12:23:21.102Z,4.60
2019-04-22T12:26:01.848Z,5.03
2019-04-22T12:28:28.778Z,4.40
2019-04-22T12:31:01.663Z,3.80
2019-04-22T12:33:35.087Z,6.00
2019-04-22T12:36:12.662Z,4.20
2019-04-22T12:38:47.491Z,4.93
2019-04-22T12:41:21.556Z,4.13
2019-04-22T12:43:55.493Z,4.93
2019-04-22T12:46:28.220Z,4.93
2019-04-22T12:49:02.268Z,4.83
2019-04-22T12:51:36.744Z,4.40
2019-04-22T12:54:10.989Z,4.17
2019-04-22T12:56:47.966Z,4.30
2019-04-22T12:59:21.147Z,4.00
2019-04-22T13:01:55.312Z,4.77
2019-04-22T13:04:28.336Z,5.00
2019-04-22T13:07:01.843Z,4.63
2019-04-22T13:09:35.817Z,4.20
2019-04-22T13:12:11.082Z,4.37
2019-04-22T13:14:45.411Z,4.00
2019-04-22T13:17:20.872Z,4.10
2019-04-22T13:19:54.501Z,5.07
2019-04-22T13:22:28.363Z,4.50
2019-04-22T13:25:02.051Z,4.07
2019-04-22T13:27:37.049Z,4.13
2019-04-22T13:30:12.428Z,4.27
2019-04-22T13:32:44.933Z,3.27
2019-04-22T13:35:20.032Z,4.30
2019-04-22T13:37:53.077Z,3.30
2019-04-22T13:40:25.182Z,3.37
2019-04-22T13:42:58.678Z,3.27
2019-04-22T13:45:31.870Z,3.97
2019-04-22T13:48:24.053Z,4.13
2019-04-22T13:56:15.417Z,3.57
2019-04-22T13:58:35.568Z,3.30
2019-04-22T14:01:00.606Z,3.77
2019-04-22T14:03:52.318Z,3.67
2019-04-22T14:06:28.935Z,3.60
2019-04-22T14:09:03.198Z,3.67
2019-04-22T14:11:48.850Z,3.40
2019-04-22T14:14:10.986Z,3.70
2019-04-22T14:16:47.120Z,3.30
2019-04-22T14:19:21.571Z,3.47
2019-04-22T14:21:55.757Z,3.67
2019-04-22T14:24:30.135Z,3.90
2019-04-22T14:27:17.465Z,3.80
2019-04-22T14:29:39.769Z,3.33
2019-04-22T14:32:19.634Z,4.47
2019-04-22T14:34:49.200Z,3.60
2019-04-22T14:37:22.357Z,3.50
2019-04-22T14:39:55.812Z,3.47
2019-04-22T14:42:52.277Z,3.83
2019-04-22T14:45:52.173Z,3.23
2019-04-22T14:48:07.101Z,3.83
2019-04-22T14:50:38.896Z,3.90
2019-04-22T14:53:08.062Z,4.10
2019-04-22T14:55:29.038Z,3.87
2019-04-22T14:58:01.562Z,4.30
2019-04-22T15:00:35.922Z,3.93
2019-04-22T15:03:13.479Z,3.90
2019-04-22T15:05:48.265Z,3.70
2019-04-22T15:08:21.603Z,4.30
2019-04-22T15:10:55.869Z,5.00
2019-04-22T15:13:29.526Z,4.47
2019-04-22T15:16:25.809Z,4.50
2019-04-22T15:19:20.162Z,5.03
2019-04-22T15:21:54.551Z,4.77
2019-04-22T15:24:29.407Z,5.03
2019-04-22T15:27:04.711Z,5.10
2019-04-22T15:29:39.228Z,5.07
2019-04-22T15:32:13.507Z,5.43
2019-04-22T15:34:49.117Z,4.80
2019-04-22T15:37:24.327Z,4.77
2019-04-22T15:39:58.582Z,4.63
2019-04-22T15:42:35.506Z,4.90
2019-04-22T15:45:05.888Z,5.50
2019-04-22T15:47:39.940Z,4.27
2019-04-22T15:50:14.183Z,5.63
2019-04-22T15:52:51.929Z,4.20
2019-04-22T15:55:26.793Z,5.03
2019-04-22T15:58:01.940Z,4.83
2019-04-22T16:00:47.198Z,4.83
2019-04-22T16:03:14.491Z,5.13
2019-04-22T16:05:50.312Z,4.67
2019-04-22T16:08:26.746Z,4.50
2019-04-22T16:11:11.729Z,4.90
2019-04-22T16:13:44.361Z,4.90
2019-04-22T16:16:16.504Z,5.37
2019-04-22T16:19:02.369Z,5.30
2019-04-22T16:21:45.487Z,4.90
2019-04-22T16:24:27.920Z,4.87
2019-04-22T16:27:08.903Z,5.37
2019-04-22T16:29:43.177Z,5.60
2019-04-22T16:32:15.797Z,5.27
2019-04-22T16:34:47.779Z,5.00
2019-04-22T16:37:20.812Z,4.97
2019-04-22T16:39:56.727Z,4.60
2019-04-22T16:42:37.903Z,5.70
2019-04-22T16:45:04.870Z,4.27
2019-04-22T16:47:39.557Z,4.70
2019-04-22T16:50:14.177Z,4.23
2019-04-22T16:52:48.084Z,4.13
2019-04-22T16:55:22.991Z,4.43
2019-04-22T16:57:54.753Z,4.57
2019-04-22T17:00:27.033Z,5.20
2019-04-22T17:03:25.089Z,4.80
2019-04-22T17:06:17.333Z,4.97
2019-04-22T17:08:48.778Z,4.23
2019-04-22T17:11:20.282Z,4.70
2019-04-22T17:13:53.022Z,5.03
2019-04-22T17:16:26.126Z,5.33
2019-04-22T17:18:58.526Z,4.77
2019-04-22T17:21:32.809Z,5.47
2019-04-22T17:24:07.773Z,4.60
2019-04-22T17:26:42.363Z,4.27
2019-04-22T17:29:16.607Z,4.83
2019-04-22T17:31:56.891Z,4.70
2019-04-22T17:34:23.421Z,5.53
2019-04-22T17:36:55.346Z,5.17
2019-04-22T17:39:41.134Z,4.77
2019-04-22T17:42:25.249Z,4.80
2019-04-22T17:45:19.148Z,5.10
2019-04-22T17:48:14.103Z,5.60
2019-04-22T17:50:57.853Z,4.80
2019-04-22T17:53:26.104Z,5.20
2019-04-22T17:56:02.168Z,4.63
2019-04-22T17:58:42.238Z,5.37
2019-04-22T18:01:21.995Z,4.67
2019-04-22T18:03:37.453Z,4.83
2019-04-22T18:06:11.025Z,4.77
2019-04-22T18:09:03.576Z,5.47
2019-04-22T18:11:40.184Z,6.30
2019-04-22T18:14:27.213Z,5.23
2019-04-22T18:16:42.769Z,5.97
2019-04-22T18:19:16.669Z,5.30
2019-04-22T18:21:47.566Z,5.07
2019-04-22T18:24:18.234Z,6.03
2019-04-22T18:27:18.970Z,5.60
2019-04-22T18:29:41.660Z,6.87
2019-04-22T18:32:05.353Z,14.27
2019-04-22T18:34:42.885Z,8.60
2019-04-22T18:37:16.691Z,6.60
2019-04-22T18:39:58.405Z,6.50
2019-04-22T18:42:27.110Z,5.53
2019-04-22T18:45:24.611Z,6.40
2019-04-22T18:47:44.283Z,6.30
2019-04-22T18:50:26.537Z,5.70
2019-04-22T18:53:27.357Z,5.60
2019-04-22T18:56:07.902Z,6.50
2019-04-22T18:58:36.805Z,6.63
2019-04-22T19:00:59.678Z,5.30
2019-04-22T19:03:44.763Z,6.37
2019-04-22T19:06:35.468Z,6.10
2019-04-22T19:09:11.980Z,5.50
2019-04-22T19:11:46.576Z,5.17
2019-04-22T19:14:22.131Z,6.23
2019-04-22T19:16:55.880Z,4.67
2019-04-22T19:21:57.519Z,4.27
2019-04-22T19:24:37.205Z,5.83
2019-04-22T19:27:09.000Z,4.73
2019-04-22T19:29:55.789Z,5.37
2019-04-22T19:32:21.318Z,5.60
2019-04-22T19:34:52.473Z,5.10
2019-04-22T19:37:28.422Z,5.30
2019-04-22T19:42:43.219Z,5.10
2019-04-22T19:45:10.787Z,5.03
2019-04-22T19:47:54.683Z,5.03
2019-04-22T19:50:29.499Z,4.60
2019-04-22T19:52:59.435Z,4.63
2019-04-22T19:55:34.968Z,5.77
2019-04-22T19:58:07.146Z,4.63
2019-04-22T20:01:15.111Z,4.63
2019-04-22T20:04:16.153Z,5.50
2019-04-22T20:06:53.444Z,4.73
2019-04-22T20:09:30.344Z,5.23
2019-04-22T20:12:00.601Z,4.90
2019-04-22T20:14:41.525Z,4.20
2019-04-22T20:17:07.547Z,4.80
2019-04-22T20:19:49.839Z,4.87
2019-04-22T20:22:17.833Z,5.00
2019-04-22T20:24:47.462Z,4.87
2019-04-22T20:27:30.308Z,4.83
2019-04-22T20:30:04.986Z,4.70
2019-04-22T20:32:37.643Z,5.37
2019-04-22T20:35:19.370Z,6.17
2019-04-22T20:37:53.688Z,5.87
2019-04-22T20:40:23.310Z,4.87
2019-04-22T20:43:00.384Z,4.33
2019-04-22T20:45:35.118Z,5.53
2019-04-22T20:48:00.211Z,5.30
2019-04-22T20:50:48.569Z,4.90
2019-04-22T20:53:28.021Z,5.03
2019-04-22T20:55:52.511Z,5.33
2019-04-22T20:58:29.739Z,5.10
2019-04-22T21:00:55.584Z,4.80
2019-04-22T21:03:27.325Z,5.43
2019-04-22T21:06:06.902Z,5.67
2019-04-22T21:08:50.356Z,5.87
2019-04-22T21:11:22.417Z,5.40
2019-04-22T21:14:04.394Z,5.60
2019-04-22T21:16:35.118Z,5.53
2019-04-22T21:19:20.012Z,5.37
2019-04-22T21:21:46.345Z,5.60
2019-04-22T21:24:20.526Z,4.50
2019-04-22T21:27:01.982Z,5.17
2019-04-22T21:29:26.536Z,5.30
2019-04-22T21:32:09.070Z,5.83
2019-04-22T21:34:43.691Z,5.33
2019-04-22T21:37:34.683Z,4.80
2019-04-22T21:39:43.556Z,5.30
2019-04-22T21:42:19.215Z,5.40
2019-04-22T21:44:51.162Z,6.03
2019-04-22T21:47:40.376Z,5.23
2019-04-22T21:50:28.350Z,5.10
2019-04-22T21:52:54.540Z,5.80
2019-04-22T21:55:26.461Z,6.20
2019-04-22T21:58:07.040Z,5.13
2019-04-22T22:00:53.136Z,6.10
2019-04-22T22:03:23.731Z,5.60
2019-04-22T22:05:44.605Z,6.10
2019-04-22T22:08:34.594Z,5.33
2019-04-22T22:11:03.766Z,5.33
2019-04-22T22:13:38.701Z,5.50
2019-04-22T22:16:06.717Z,6.10
2019-04-22T22:18:35.077Z,4.83
2019-04-22T22:21:34.958Z,5.83
2019-04-22T22:23:59.859Z,5.50
2019-04-22T22:26:26.656Z,6.20
2019-04-22T22:29:08.911Z,5.80
2019-04-22T22:31:40.238Z,5.40
2019-04-22T22:34:15.168Z,6.03
2019-04-22T22:36:40.378Z,5.43
2019-04-22T22:39:16.474Z,6.87
2019-04-22T22:41:37.008Z,5.40
2019-04-22T22:44:21.122Z,5.87
2019-04-22T22:47:05.023Z,5.70
2019-04-22T22:49:50.398Z,6.80
2019-04-22T22:54:54.088Z,6.00
2019-04-22T22:57:33.724Z,6.53
2019-04-22T23:00:01.777Z,5.50
2019-04-22T23:02:47.238Z,5.93
2019-04-22T23:05:22.316Z,5.80
2019-04-22T23:07:54.153Z,6.93
2019-04-22T23:10:25.272Z,6.70
2019-04-22T23:13:00.408Z,6.00
2019-04-22T23:15:25.359Z,6.00
2019-04-22T23:17:41.380Z,6.63
2019-04-22T23:20:18.462Z,6.53
2019-04-22T23:23:09.032Z,6.10
2019-04-22T23:25:44.762Z,6.43
2019-04-22T23:28:36.403Z,6.70
2019-04-22T23:31:29.256Z,6.83
2019-04-22T23:34:10.651Z,7.37
2019-04-22T23:36:56.388Z,7.90
2019-04-22T23:39:41.546Z,6.30
2019-04-22T23:42:18.923Z,6.63
2019-04-22T23:44:49.692Z,7.20
2019-04-22T23:47:29.350Z,8.50
2019-04-22T23:50:11.220Z,6.60
2019-04-22T23:53:02.068Z,7.27
2019-04-22T23:55:36.968Z,7.10
2019-04-22T23:58:25.093Z,5.90
